Time;durP1;ratioP1;P1;durP2;ratioP2;P2;SDS_P1;SDS_P2;PMS_P1;PMS_P2;Temp;Humidity;BMP_temperature;BMP_pressure;BME280_temperature;BME280_humidity;BME280_pressure;Samples;Min_cycle;Max_cycle;Signal;HPM_P1;HPM_P2
2021/07/22 00:00:47;;;;;;;16.02;10.55;;;;;;;;;;1486172;39;21042;-80
2021/07/22 00:01:49;;;;;;;15.70;10.53;;;;;;;;;;1481618;40;20559;-81
2021/07/22 00:02:51;;;;;;;17.30;11.18;;;;;;;;;;1482057;39;20501;-80
2021/07/22 00:03:53;;;;;;;13.93;10.70;;;;;;;;;;1486082;39;20572;-81
2021/07/22 00:05:05;;;;;;;17.05;10.63;;;;;;;;;;1483929;39;20493;-81
2021/07/22 00:06:07;;;;;;;14.85;10.63;;;;;;;;;;1485443;39;20409;-80
2021/07/22 00:07:09;;;;;;;16.37;11.13;;;;;;;;;;1488312;39;20536;-81
2021/07/22 00:08:13;;;;;;;17.00;10.02;;;;;;;;;;1485116;40;20406;-81
2021/07/22 00:09:15;;;;;;;15.57;9.93;;;;;;;;;;1486816;39;20531;-81
2021/07/22 00:10:17;;;;;;;15.43;10.50;;;;;;;;;;1486035;40;20430;-81
2021/07/22 00:11:18;;;;;;;18.23;11.77;;;;;;;;;;1486380;39;20560;-81
2021/07/22 00:12:20;;;;;;;13.93;9.65;;;;;;;;;;1490822;39;20720;-80
2021/07/22 00:13:22;;;;;;;14.43;10.32;;;;;;;;;;1485865;40;21014;-79
2021/07/22 00:14:28;;;;;;;15.05;10.57;;;;;;;;;;1486173;39;20490;-81
2021/07/22 00:15:30;;;;;;;13.80;9.82;;;;;;;;;;1490807;39;20406;-82
2021/07/22 00:16:34;;;;;;;15.40;10.45;;;;;;;;;;1490945;39;20419;-78
2021/07/22 00:17:36;;;;;;;13.48;9.98;;;;;;;;;;1481921;40;21323;-79
2021/07/22 00:18:38;;;;;;;14.20;9.98;;;;;;;;;;1477490;40;20803;-79
2021/07/22 00:19:39;;;;;;;14.77;9.73;;;;;;;;;;1482237;39;20416;-81
2021/07/22 00:20:41;;;;;;;14.13;10.23;;;;;;;;;;1486168;39;20417;-79
2021/07/22 00:21:42;;;;;;;13.20;9.50;;;;;;;;;;1477675;40;20483;-81
2021/07/22 00:22:44;;;;;;;14.15;10.00;;;;;;;;;;1482013;39;20416;-80
2021/07/22 00:23:45;;;;;;;14.85;10.73;;;;;;;;;;1486301;40;20430;-79
2021/07/22 00:24:47;;;;;;;13.63;10.55;;;;;;;;;;1473661;40;20529;-80
2021/07/22 00:25:48;;;;;;;13.90;10.23;;;;;;;;;;1477878;39;20469;-79
2021/07/22 00:26:50;;;;;;;15.05;10.57;;;;;;;;;;1486216;40;20427;-81
2021/07/22 00:27:52;;;;;;;13.65;9.52;;;;;;;;;;1484113;40;20477;-80
2021/07/22 00:28:53;;;;;;;14.63;9.85;;;;;;;;;;1488938;39;20498;-80
2021/07/22 00:29:55;;;;;;;13.55;10.02;;;;;;;;;;1493947;39;20412;-81
2021/07/22 00:30:57;;;;;;;14.90;9.60;;;;;;;;;;1485224;40;20424;-81
2021/07/22 00:31:59;;;;;;;13.77;9.82;;;;;;;;;;1481806;40;20410;-80
2021/07/22 00:33:01;;;;;;;12.77;9.02;;;;;;;;;;1484665;40;20437;-80
2021/07/22 00:34:02;;;;;;;16.38;11.00;;;;;;;;;;1486947;39;20462;-79
2021/07/22 00:35:04;;;;;;;15.23;9.98;;;;;;;;;;1482354;40;20511;-79
2021/07/22 00:36:08;;;;;;;17.85;11.07;;;;;;;;;;1482910;39;20417;-79
2021/07/22 00:37:10;;;;;;;14.25;9.77;;;;;;;;;;1490857;39;20404;-79
2021/07/22 00:38:11;;;;;;;14.20;10.10;;;;;;;;;;1482165;40;20471;-79
2021/07/22 00:39:15;;;;;;;16.67;11.00;;;;;;;;;;1482476;39;20393;-78
2021/07/22 00:40:17;;;;;;;14.18;10.45;;;;;;;;;;1486103;40;20418;-79
2021/07/22 00:41:18;;;;;;;14.98;11.20;;;;;;;;;;1486492;39;20491;-79
2021/07/22 00:42:20;;;;;;;15.40;10.57;;;;;;;;;;1486058;40;20491;-80
2021/07/22 00:43:22;;;;;;;18.52;12.63;;;;;;;;;;1485973;39;20496;-82
2021/07/22 00:44:23;;;;;;;13.77;10.85;;;;;;;;;;1482263;40;20421;-80
2021/07/22 00:45:25;;;;;;;16.20;11.38;;;;;;;;;;1477727;40;20406;-80
2021/07/22 00:46:27;;;;;;;17.42;11.70;;;;;;;;;;1482071;39;20412;-83
2021/07/22 00:47:29;;;;;;;17.00;12.15;;;;;;;;;;1490776;39;20415;-81
2021/07/22 00:48:30;;;;;;;19.23;11.52;;;;;;;;;;1482113;40;20464;-80
2021/07/22 00:49:32;;;;;;;19.10;12.05;;;;;;;;;;1481942;39;21116;-81
2021/07/22 00:50:35;;;;;;;17.33;11.70;;;;;;;;;;1481652;40;21027;-80
2021/07/22 00:51:38;;;;;;;13.70;10.57;;;;;;;;;;1477998;40;20591;-82
2021/07/22 00:52:40;;;;;;;14.05;11.05;;;;;;;;;;1481923;40;20643;-82
2021/07/22 00:53:41;;;;;;;16.92;11.13;;;;;;;;;;1482068;40;20456;-80
2021/07/22 00:54:43;;;;;;;17.40;11.27;;;;;;;;;;1481789;40;20511;-81
2021/07/22 00:55:45;;;;;;;17.42;11.38;;;;;;;;;;1482126;40;20486;-79
2021/07/22 00:56:46;;;;;;;16.13;11.57;;;;;;;;;;1481638;40;20436;-81
2021/07/22 00:57:48;;;;;;;14.73;10.75;;;;;;;;;;1473382;40;20951;-82
2021/07/22 00:58:49;;;;;;;14.80;10.85;;;;;;;;;;1477900;40;20434;-82
2021/07/22 00:59:51;;;;;;;13.70;10.88;;;;;;;;;;1485978;39;20486;-81
2021/07/22 01:00:52;;;;;;;15.73;11.00;;;;;;;;;;1486217;40;20451;-80
2021/07/22 01:01:54;;;;;;;14.38;11.20;;;;;;;;;;1481738;40;20401;-81
2021/07/22 01:02:56;;;;;;;14.65;10.98;;;;;;;;;;1481897;40;20693;-81
2021/07/22 01:03:58;;;;;;;14.43;11.88;;;;;;;;;;1486117;40;20426;-82
2021/07/22 01:05:00;;;;;;;15.80;11.15;;;;;;;;;;1486217;39;20743;-80
2021/07/22 01:06:01;;;;;;;16.50;11.15;;;;;;;;;;1485729;40;20477;-79
2021/07/22 01:07:03;;;;;;;15.60;10.77;;;;;;;;;;1481932;40;20994;-82
2021/07/22 01:08:05;;;;;;;16.08;11.65;;;;;;;;;;1486173;39;20508;-82
2021/07/22 01:09:06;;;;;;;15.77;12.75;;;;;;;;;;1490907;39;20515;-82
2021/07/22 01:10:09;;;;;;;17.27;11.98;;;;;;;;;;1490858;39;20505;-79
2021/07/22 01:11:11;;;;;;;17.87;11.67;;;;;;;;;;1490338;39;20583;-80
2021/07/22 01:12:12;;;;;;;15.13;11.38;;;;;;;;;;1481859;40;20829;-82
2021/07/22 01:13:14;;;;;;;18.02;12.35;;;;;;;;;;1472594;40;20896;-80
2021/07/22 01:14:15;;;;;;;16.58;12.02;;;;;;;;;;1477863;40;20497;-80
2021/07/22 01:15:17;;;;;;;18.10;12.07;;;;;;;;;;1485927;40;20399;-81
2021/07/22 01:16:19;;;;;;;16.58;11.85;;;;;;;;;;1486175;39;20771;-79
2021/07/22 01:17:29;;;;;;;15.48;12.35;;;;;;;;;;1486667;39;20405;-80
2021/07/22 01:18:31;;;;;;;17.17;12.82;;;;;;;;;;1486322;39;20836;-82
2021/07/22 01:19:33;;;;;;;16.77;12.05;;;;;;;;;;1486254;40;20452;-82
2021/07/22 01:20:34;;;;;;;17.40;13.13;;;;;;;;;;1485511;39;20500;-81
2021/07/22 01:21:37;;;;;;;18.25;12.60;;;;;;;;;;1481757;40;20401;-79
2021/07/22 01:22:38;;;;;;;17.75;12.02;;;;;;;;;;1482137;39;20432;-79
2021/07/22 01:23:40;;;;;;;16.08;12.55;;;;;;;;;;1486284;39;20457;-81
2021/07/22 01:24:42;;;;;;;20.08;12.55;;;;;;;;;;1486113;39;20431;-81
2021/07/22 01:25:43;;;;;;;18.10;12.80;;;;;;;;;;1490069;39;20405;-78
2021/07/22 01:26:45;;;;;;;17.70;12.80;;;;;;;;;;1490507;39;20433;-79
2021/07/22 01:27:48;;;;;;;17.40;12.93;;;;;;;;;;1490558;39;20600;-79
2021/07/22 01:28:49;;;;;;;17.67;12.35;;;;;;;;;;1490690;39;20417;-81
2021/07/22 01:29:51;;;;;;;17.45;12.68;;;;;;;;;;1491050;39;20431;-81
2021/07/22 01:30:52;;;;;;;18.73;13.03;;;;;;;;;;1490028;39;20458;-80
2021/07/22 01:31:54;;;;;;;18.75;12.35;;;;;;;;;;1490549;39;20445;-80
2021/07/22 01:32:56;;;;;;;21.40;13.02;;;;;;;;;;1490347;39;20493;-80
2021/07/22 01:33:57;;;;;;;17.50;13.02;;;;;;;;;;1490193;39;20416;-81
2021/07/22 01:34:59;;;;;;;19.15;13.80;;;;;;;;;;1490376;39;20410;-80
2021/07/22 01:36:00;;;;;;;19.27;13.35;;;;;;;;;;1490297;39;20739;-79
2021/07/22 01:37:02;;;;;;;16.50;12.73;;;;;;;;;;1490401;39;20553;-80
2021/07/22 01:38:04;;;;;;;19.67;13.27;;;;;;;;;;1486413;39;20450;-81
2021/07/22 01:39:05;;;;;;;20.38;13.48;;;;;;;;;;1490549;39;20412;-80
2021/07/22 01:40:08;;;;;;;17.93;12.63;;;;;;;;;;1490091;39;20436;-82
2021/07/22 01:41:09;;;;;;;17.73;12.18;;;;;;;;;;1486099;39;20517;-82
2021/07/22 01:42:11;;;;;;;21.02;13.45;;;;;;;;;;1486463;39;20558;-79
2021/07/22 01:43:13;;;;;;;20.15;12.40;;;;;;;;;;1486327;39;20403;-81
2021/07/22 01:44:16;;;;;;;19.45;12.93;;;;;;;;;;1490796;39;20455;-81
2021/07/22 01:45:18;;;;;;;21.20;14.32;;;;;;;;;;1490001;39;21105;-81
2021/07/22 01:46:20;;;;;;;19.45;13.65;;;;;;;;;;1486589;39;20407;-81
2021/07/22 01:47:21;;;;;;;18.95;13.10;;;;;;;;;;1486489;39;20387;-79
2021/07/22 01:48:23;;;;;;;19.33;12.38;;;;;;;;;;1477924;40;20934;-78
2021/07/22 01:49:25;;;;;;;19.10;13.57;;;;;;;;;;1478428;39;20399;-80
2021/07/22 01:50:26;;;;;;;23.67;13.82;;;;;;;;;;1481767;40;20419;-80
2021/07/22 01:51:28;;;;;;;19.40;13.60;;;;;;;;;;1482187;39;20444;-79
2021/07/22 01:52:28;;;;;;;19.50;13.50;;;;;;;;;;1486662;39;20479;-79
2021/07/22 01:53:30;;;;;;;17.42;13.13;;;;;;;;;;1482409;40;20451;-79
2021/07/22 01:54:32;;;;;;;18.38;14.00;;;;;;;;;;1486089;39;20805;-82
2021/07/22 01:55:34;;;;;;;16.80;12.48;;;;;;;;;;1490457;39;20802;-84
2021/07/22 01:56:35;;;;;;;17.02;12.18;;;;;;;;;;1490289;39;20401;-82
2021/07/22 01:57:37;;;;;;;17.92;13.73;;;;;;;;;;1490760;39;20417;-81
2021/07/22 01:58:38;;;;;;;19.13;13.10;;;;;;;;;;1490392;39;20838;-80
2021/07/22 01:59:40;;;;;;;18.83;13.65;;;;;;;;;;1490573;39;20428;-79
2021/07/22 02:00:42;;;;;;;21.40;14.25;;;;;;;;;;1489946;39;20443;-79
2021/07/22 02:01:43;;;;;;;21.58;14.77;;;;;;;;;;1490156;39;20405;-79
2021/07/22 02:02:45;;;;;;;20.63;14.50;;;;;;;;;;1490806;39;20686;-80
2021/07/22 02:03:47;;;;;;;16.90;13.20;;;;;;;;;;1491256;39;20405;-79
2021/07/22 02:04:48;;;;;;;18.95;13.18;;;;;;;;;;1491048;39;20401;-79
2021/07/22 02:05:51;;;;;;;21.30;13.88;;;;;;;;;;1486496;40;20823;-79
2021/07/22 02:06:52;;;;;;;20.53;14.50;;;;;;;;;;1482774;39;20668;-78
2021/07/22 02:07:54;;;;;;;21.65;14.57;;;;;;;;;;1487650;39;20719;-79
2021/07/22 02:08:56;;;;;;;20.67;14.48;;;;;;;;;;1492413;39;20893;-79
2021/07/22 02:09:57;;;;;;;20.27;14.63;;;;;;;;;;1491192;40;20525;-81
2021/07/22 02:11:02;;;;;;;22.67;15.88;;;;;;;;;;1491426;39;20407;-81
2021/07/22 02:12:04;;;;;;;22.58;15.13;;;;;;;;;;1494935;39;20396;-81
2021/07/22 02:13:06;;;;;;;24.02;15.57;;;;;;;;;;1492970;39;20467;-81
2021/07/22 02:14:07;;;;;;;23.30;15.75;;;;;;;;;;1491987;39;20413;-81
2021/07/22 02:15:09;;;;;;;21.92;15.32;;;;;;;;;;1492729;39;20530;-80
2021/07/22 02:16:11;;;;;;;22.05;16.30;;;;;;;;;;1492993;39;20405;-81
2021/07/22 02:17:13;;;;;;;21.70;15.40;;;;;;;;;;1496877;39;20397;-80
2021/07/22 02:18:15;;;;;;;22.83;16.73;;;;;;;;;;1493117;39;20410;-83
2021/07/22 02:19:17;;;;;;;22.77;15.80;;;;;;;;;;1492510;39;20418;-81
2021/07/22 02:20:18;;;;;;;22.17;16.92;;;;;;;;;;1490694;40;20428;-81
2021/07/22 02:21:21;;;;;;;25.67;17.17;;;;;;;;;;1488606;40;20711;-80
2021/07/22 02:22:23;;;;;;;23.95;16.25;;;;;;;;;;1488495;40;20424;-79
2021/07/22 02:23:24;;;;;;;26.30;18.52;;;;;;;;;;1488457;40;20430;-81
2021/07/22 02:24:26;;;;;;;24.92;17.27;;;;;;;;;;1487808;40;20489;-80
2021/07/22 02:25:27;;;;;;;22.92;17.23;;;;;;;;;;1483427;40;20542;-79
2021/07/22 02:26:29;;;;;;;25.95;17.50;;;;;;;;;;1483195;40;20389;-81
2021/07/22 02:27:35;;;;;;;25.10;17.55;;;;;;;;;;1483119;40;20486;-81
2021/07/22 02:28:37;;;;;;;24.33;17.65;;;;;;;;;;1491282;39;20452;-82
2021/07/22 02:29:38;;;;;;;25.65;17.23;;;;;;;;;;1491075;39;20527;-81
2021/07/22 02:30:40;;;;;;;24.10;17.27;;;;;;;;;;1483283;40;20727;-81
2021/07/22 02:31:43;;;;;;;30.02;18.45;;;;;;;;;;1486948;40;20536;-81
2021/07/22 02:32:44;;;;;;;27.52;18.15;;;;;;;;;;1482546;40;20426;-80
2021/07/22 02:33:46;;;;;;;27.85;18.88;;;;;;;;;;1482002;40;20764;-81
2021/07/22 02:34:47;;;;;;;28.08;17.90;;;;;;;;;;1487555;39;20649;-81
2021/07/22 02:35:49;;;;;;;25.70;17.48;;;;;;;;;;1487394;39;20537;-81
2021/07/22 02:36:51;;;;;;;27.52;17.77;;;;;;;;;;1490801;39;20408;-80
2021/07/22 02:37:52;;;;;;;27.98;17.77;;;;;;;;;;1486544;40;20430;-80
2021/07/22 02:38:54;;;;;;;25.65;18.20;;;;;;;;;;1482022;40;20526;-81
2021/07/22 02:39:55;;;;;;;30.58;18.70;;;;;;;;;;1486597;40;20479;-81
2021/07/22 02:40:57;;;;;;;30.23;20.88;;;;;;;;;;1478474;40;20473;-80
2021/07/22 02:41:58;;;;;;;26.92;19.00;;;;;;;;;;1482701;40;20563;-81
2021/07/22 02:43:00;;;;;;;28.40;19.10;;;;;;;;;;1490340;39;20411;-81
2021/07/22 02:44:02;;;;;;;26.95;18.48;;;;;;;;;;1490249;39;20409;-81
2021/07/22 02:45:05;;;;;;;26.98;18.48;;;;;;;;;;1490561;39;20412;-79
2021/07/22 02:46:08;;;;;;;30.30;19.50;;;;;;;;;;1490574;39;20500;-79
2021/07/22 02:47:11;;;;;;;27.27;18.20;;;;;;;;;;1486776;39;20395;-80
2021/07/22 02:48:13;;;;;;;31.17;19.30;;;;;;;;;;1489218;39;20401;-81
2021/07/22 02:49:15;;;;;;;29.90;19.65;;;;;;;;;;1491194;39;20472;-78
2021/07/22 02:50:16;;;;;;;31.23;19.40;;;;;;;;;;1490621;39;20792;-79
2021/07/22 02:51:18;;;;;;;28.02;19.00;;;;;;;;;;1482308;40;20396;-81
2021/07/22 02:52:19;;;;;;;27.15;19.15;;;;;;;;;;1486569;39;20920;-81
2021/07/22 02:53:21;;;;;;;29.05;19.23;;;;;;;;;;1490326;39;20444;-80
2021/07/22 02:54:22;;;;;;;29.50;19.48;;;;;;;;;;1490445;39;20632;-80
2021/07/22 02:55:24;;;;;;;29.35;19.77;;;;;;;;;;1491138;39;20420;-81
2021/07/22 02:56:26;;;;;;;26.73;18.10;;;;;;;;;;1490685;39;20402;-80
2021/07/22 02:57:28;;;;;;;25.92;17.77;;;;;;;;;;1490354;39;20447;-80
2021/07/22 02:58:30;;;;;;;26.25;18.48;;;;;;;;;;1490328;39;20489;-79
2021/07/22 02:59:31;;;;;;;28.73;17.67;;;;;;;;;;1490660;39;20405;-81
2021/07/22 03:00:33;;;;;;;25.90;18.17;;;;;;;;;;1482309;40;20385;-81
2021/07/22 03:01:35;;;;;;;24.65;17.83;;;;;;;;;;1478513;39;20417;-80
2021/07/22 03:02:37;;;;;;;31.37;19.83;;;;;;;;;;1482291;40;20837;-79
2021/07/22 03:03:38;;;;;;;29.55;18.70;;;;;;;;;;1484371;39;20555;-81
2021/07/22 03:04:41;;;;;;;27.35;17.58;;;;;;;;;;1493720;39;20488;-80
2021/07/22 03:05:43;;;;;;;26.80;18.25;;;;;;;;;;1489754;39;20745;-81
2021/07/22 03:06:47;;;;;;;27.70;17.75;;;;;;;;;;1494167;39;20417;-81
2021/07/22 03:07:49;;;;;;;28.27;18.17;;;;;;;;;;1494206;39;20537;-81
2021/07/22 03:08:50;;;;;;;23.60;17.35;;;;;;;;;;1489023;39;21120;-80
2021/07/22 03:09:52;;;;;;;26.45;18.42;;;;;;;;;;1487102;39;20427;-79
2021/07/22 03:10:53;;;;;;;25.90;17.23;;;;;;;;;;1491165;39;20416;-81
2021/07/22 03:11:57;;;;;;;26.33;17.13;;;;;;;;;;1491317;39;20420;-79
2021/07/22 03:12:59;;;;;;;28.27;17.77;;;;;;;;;;1490763;39;20511;-80
2021/07/22 03:14:01;;;;;;;31.10;17.50;;;;;;;;;;1493497;39;20423;-81
2021/07/22 03:15:03;;;;;;;27.33;16.92;;;;;;;;;;1495368;39;20516;-81
2021/07/22 03:16:06;;;;;;;25.73;17.40;;;;;;;;;;1490587;39;20506;-82
2021/07/22 03:17:08;;;;;;;25.77;17.00;;;;;;;;;;1486311;39;20409;-78
2021/07/22 03:18:12;;;;;;;23.42;15.30;;;;;;;;;;1487504;39;20456;-80
2021/07/22 03:19:15;;;;;;;22.38;16.67;;;;;;;;;;1482073;40;20421;-81
2021/07/22 03:20:17;;;;;;;23.10;15.43;;;;;;;;;;1478186;40;20881;-81
2021/07/22 03:21:19;;;;;;;23.98;15.80;;;;;;;;;;1474266;40;20509;-80
2021/07/22 03:22:20;;;;;;;26.52;16.13;;;;;;;;;;1486286;39;20451;-80
2021/07/22 03:23:22;;;;;;;26.75;16.58;;;;;;;;;;1486202;40;20474;-82
2021/07/22 03:24:25;;;;;;;24.00;15.70;;;;;;;;;;1486409;40;20434;-80
2021/07/22 03:25:27;;;;;;;22.92;16.15;;;;;;;;;;1486773;39;20391;-79
2021/07/22 03:26:28;;;;;;;26.35;15.25;;;;;;;;;;1482022;40;20516;-81
2021/07/22 03:27:30;;;;;;;23.98;17.08;;;;;;;;;;1482075;39;20473;-81
2021/07/22 03:28:31;;;;;;;22.40;16.08;;;;;;;;;;1486329;40;20462;-81
2021/07/22 03:29:33;;;;;;;23.52;14.98;;;;;;;;;;1486328;39;20414;-80
2021/07/22 03:30:35;;;;;;;24.63;15.45;;;;;;;;;;1491178;39;20413;-80
2021/07/22 03:31:36;;;;;;;27.75;16.85;;;;;;;;;;1486404;40;20402;-81
2021/07/22 03:32:38;;;;;;;23.02;14.95;;;;;;;;;;1482065;40;20397;-81
2021/07/22 03:33:40;;;;;;;20.17;14.45;;;;;;;;;;1481961;39;20412;-82
2021/07/22 03:34:41;;;;;;;21.05;14.48;;;;;;;;;;1486429;40;20455;-80
2021/07/22 03:35:43;;;;;;;21.90;14.75;;;;;;;;;;1482245;40;20699;-80
2021/07/22 03:36:45;;;;;;;22.33;14.68;;;;;;;;;;1486083;39;20465;-80
2021/07/22 03:37:46;;;;;;;20.83;13.90;;;;;;;;;;1482104;40;20486;-81
2021/07/22 03:38:48;;;;;;;21.08;13.88;;;;;;;;;;1478101;40;20477;-82
2021/07/22 03:39:51;;;;;;;19.80;14.07;;;;;;;;;;1486268;39;20454;-81
2021/07/22 03:40:52;;;;;;;18.95;14.85;;;;;;;;;;1491058;39;20408;-81
2021/07/22 03:41:54;;;;;;;19.88;13.35;;;;;;;;;;1490677;39;20429;-81
2021/07/22 03:42:56;;;;;;;18.90;13.75;;;;;;;;;;1490760;39;20401;-81
2021/07/22 03:43:58;;;;;;;20.75;13.50;;;;;;;;;;1486437;40;20501;-81
2021/07/22 03:44:59;;;;;;;22.48;13.50;;;;;;;;;;1486447;40;20431;-81
2021/07/22 03:46:01;;;;;;;17.95;13.48;;;;;;;;;;1486114;39;20801;-81
2021/07/22 03:47:04;;;;;;;20.88;12.82;;;;;;;;;;1486178;40;20413;-82
2021/07/22 03:48:06;;;;;;;19.33;13.32;;;;;;;;;;1486536;39;20387;-82
2021/07/22 03:49:08;;;;;;;18.35;13.07;;;;;;;;;;1486163;40;20391;-81
2021/07/22 03:50:10;;;;;;;19.15;12.88;;;;;;;;;;1486475;39;20468;-81
2021/07/22 03:51:11;;;;;;;16.38;12.55;;;;;;;;;;1486016;40;20953;-81
2021/07/22 03:52:13;;;;;;;20.60;12.50;;;;;;;;;;1482200;40;20477;-80
2021/07/22 03:53:15;;;;;;;19.48;13.25;;;;;;;;;;1486094;39;20839;-81
2021/07/22 03:54:16;;;;;;;17.48;12.38;;;;;;;;;;1491020;39;20387;-81
2021/07/22 03:55:18;;;;;;;19.38;13.55;;;;;;;;;;1486022;40;20429;-81
2021/07/22 03:56:20;;;;;;;16.95;12.07;;;;;;;;;;1486317;39;20415;-81
2021/07/22 03:57:21;;;;;;;14.20;11.65;;;;;;;;;;1490755;39;20485;-81
2021/07/22 03:58:23;;;;;;;19.75;12.43;;;;;;;;;;1486284;40;20403;-81
2021/07/22 03:59:24;;;;;;;16.35;11.93;;;;;;;;;;1486289;39;20480;-81
2021/07/22 04:00:26;;;;;;;16.25;12.05;;;;;;;;;;1486544;40;20584;-81
2021/07/22 04:01:28;;;;;;;19.08;12.45;;;;;;;;;;1481941;40;20460;-81
2021/07/22 04:02:29;;;;;;;16.33;12.60;;;;;;;;;;1482349;40;20904;-81
2021/07/22 04:03:35;;;;;;;15.75;11.20;;;;;;;;;;1485848;39;20407;-81
2021/07/22 04:04:37;;;;;;;14.98;11.25;;;;;;;;;;1486092;40;20687;-80
2021/07/22 04:05:39;;;;;;;17.05;11.93;;;;;;;;;;1482003;40;20409;-81
2021/07/22 04:06:40;;;;;;;17.40;11.90;;;;;;;;;;1482115;40;20514;-79
2021/07/22 04:07:42;;;;;;;16.13;11.77;;;;;;;;;;1482430;40;20420;-79
2021/07/22 04:08:43;;;;;;;16.73;11.60;;;;;;;;;;1478071;40;20426;-81
2021/07/22 04:09:45;;;;;;;17.17;12.15;;;;;;;;;;1482177;39;20408;-81
2021/07/22 04:10:46;;;;;;;16.65;11.45;;;;;;;;;;1486054;40;20763;-81
2021/07/22 04:11:48;;;;;;;18.88;11.50;;;;;;;;;;1482012;40;20413;-81
2021/07/22 04:13:08;;;;;;;14.98;12.35;;;;;;;;;;1482386;40;20443;-81
2021/07/22 04:14:09;;;;;;;19.30;12.20;;;;;;;;;;1487901;39;20477;-81
2021/07/22 04:15:11;;;;;;;18.10;11.93;;;;;;;;;;1491181;39;20489;-81
2021/07/22 04:16:13;;;;;;;16.42;10.85;;;;;;;;;;1490900;39;20453;-79
2021/07/22 04:17:15;;;;;;;19.90;12.10;;;;;;;;;;1482210;40;20424;-82
2021/07/22 04:18:17;;;;;;;15.98;11.13;;;;;;;;;;1481271;39;20397;-80
2021/07/22 04:19:18;;;;;;;14.85;11.50;;;;;;;;;;1486607;39;20462;-79
2021/07/22 04:20:21;;;;;;;16.60;11.40;;;;;;;;;;1490744;39;20500;-82
2021/07/22 04:21:22;;;;;;;14.90;11.00;;;;;;;;;;1494988;39;20894;-80
2021/07/22 04:22:24;;;;;;;14.85;11.02;;;;;;;;;;1490418;39;20449;-80
2021/07/22 04:23:25;;;;;;;15.73;11.35;;;;;;;;;;1490705;39;20816;-79
2021/07/22 04:24:27;;;;;;;15.40;11.05;;;;;;;;;;1490336;39;20507;-80
2021/07/22 04:25:29;;;;;;;15.65;11.93;;;;;;;;;;1486005;39;21024;-80
2021/07/22 04:26:31;;;;;;;14.73;10.63;;;;;;;;;;1490511;39;20505;-80
2021/07/22 04:27:32;;;;;;;15.63;10.80;;;;;;;;;;1490526;39;20425;-81
2021/07/22 04:28:34;;;;;;;14.00;10.45;;;;;;;;;;1490191;39;20520;-81
2021/07/22 04:29:35;;;;;;;15.02;11.20;;;;;;;;;;1486325;39;20749;-82
2021/07/22 04:30:37;;;;;;;13.88;9.98;;;;;;;;;;1486198;39;20529;-82
2021/07/22 04:31:39;;;;;;;11.07;9.00;;;;;;;;;;1486212;39;21279;-81
2021/07/22 04:32:41;;;;;;;13.23;10.65;;;;;;;;;;1486848;39;20600;-81
2021/07/22 04:33:43;;;;;;;18.65;10.55;;;;;;;;;;1490103;39;20488;-82
2021/07/22 04:34:44;;;;;;;13.52;10.07;;;;;;;;;;1494990;39;20400;-80
2021/07/22 04:35:46;;;;;;;14.10;10.85;;;;;;;;;;1490238;39;20480;-81
2021/07/22 04:36:48;;;;;;;14.00;10.03;;;;;;;;;;1490367;39;20497;-80
2021/07/22 04:37:49;;;;;;;12.88;10.10;;;;;;;;;;1494956;39;20406;-81
2021/07/22 04:38:51;;;;;;;13.30;10.98;;;;;;;;;;1490186;39;20491;-82
2021/07/22 04:39:53;;;;;;;14.18;10.25;;;;;;;;;;1490761;39;20482;-80
2021/07/22 04:40:55;;;;;;;14.30;10.27;;;;;;;;;;1494231;39;20790;-81
2021/07/22 04:41:57;;;;;;;13.63;10.02;;;;;;;;;;1494646;39;21053;-80
2021/07/22 04:43:01;;;;;;;14.07;10.88;;;;;;;;;;1486242;40;20483;-80
2021/07/22 04:44:03;;;;;;;13.65;10.05;;;;;;;;;;1482690;39;20878;-81
2021/07/22 04:45:05;;;;;;;13.82;10.00;;;;;;;;;;1490462;39;20401;-81
2021/07/22 04:46:07;;;;;;;13.13;9.43;;;;;;;;;;1490253;39;20791;-81
2021/07/22 04:47:09;;;;;;;11.88;9.23;;;;;;;;;;1490566;39;20423;-82
2021/07/22 04:48:11;;;;;;;15.18;9.73;;;;;;;;;;1493083;39;20462;-82
2021/07/22 04:49:13;;;;;;;13.75;10.52;;;;;;;;;;1491662;39;20500;-79
2021/07/22 04:50:15;;;;;;;11.68;9.63;;;;;;;;;;1486991;40;20401;-82
2021/07/22 04:51:16;;;;;;;13.20;9.30;;;;;;;;;;1489038;39;20836;-81
2021/07/22 04:52:18;;;;;;;10.68;9.02;;;;;;;;;;1482862;40;20453;-84
2021/07/22 04:53:19;;;;;;;14.07;9.80;;;;;;;;;;1475086;40;20430;-83
2021/07/22 04:54:23;;;;;;;12.45;9.13;;;;;;;;;;1479501;40;20431;-81
2021/07/22 04:55:24;;;;;;;11.20;8.57;;;;;;;;;;1486569;40;20456;-81
2021/07/22 04:56:26;;;;;;;10.73;8.45;;;;;;;;;;1479871;40;20491;-80
2021/07/22 04:57:27;;;;;;;10.35;8.63;;;;;;;;;;1484211;40;20405;-83
2021/07/22 04:58:29;;;;;;;11.52;9.40;;;;;;;;;;1483728;40;20486;-82
2021/07/22 04:59:30;;;;;;;11.80;9.30;;;;;;;;;;1481121;40;20788;-81
2021/07/22 05:00:32;;;;;;;9.57;8.57;;;;;;;;;;1489122;39;20462;-80
2021/07/22 05:01:34;;;;;;;12.45;9.20;;;;;;;;;;1488239;40;20506;-81
2021/07/22 05:02:36;;;;;;;13.73;9.07;;;;;;;;;;1484087;40;20513;-81
2021/07/22 05:03:38;;;;;;;10.43;9.13;;;;;;;;;;1487179;39;20497;-82
2021/07/22 05:04:39;;;;;;;12.75;8.32;;;;;;;;;;1482717;40;20527;-82
2021/07/22 05:05:41;;;;;;;10.98;8.68;;;;;;;;;;1473822;40;20458;-81
2021/07/22 05:06:42;;;;;;;11.68;8.40;;;;;;;;;;1478254;40;20545;-81
2021/07/22 05:07:44;;;;;;;10.27;8.60;;;;;;;;;;1486456;39;20541;-81
2021/07/22 05:08:46;;;;;;;11.07;8.30;;;;;;;;;;1482179;40;20446;-81
2021/07/22 05:09:47;;;;;;;11.20;8.30;;;;;;;;;;1477975;40;20454;-81
2021/07/22 05:10:49;;;;;;;13.93;9.90;;;;;;;;;;1481846;40;20409;-80
2021/07/22 05:11:50;;;;;;;10.98;8.30;;;;;;;;;;1486032;39;20410;-81
2021/07/22 05:12:59;;;;;;;12.88;8.32;;;;;;;;;;1486276;40;20480;-81
2021/07/22 05:14:00;;;;;;;11.52;7.95;;;;;;;;;;1486892;39;20407;-80
2021/07/22 05:15:02;;;;;;;11.90;8.13;;;;;;;;;;1485954;40;20387;-79
2021/07/22 05:16:04;;;;;;;12.98;8.48;;;;;;;;;;1481495;40;20806;-81
2021/07/22 05:17:06;;;;;;;9.18;6.93;;;;;;;;;;1478119;40;20410;-81
2021/07/22 05:18:07;;;;;;;10.57;8.32;;;;;;;;;;1486288;39;20403;-82
2021/07/22 05:19:11;;;;;;;10.48;8.25;;;;;;;;;;1489997;39;20463;-82
2021/07/22 05:20:12;;;;;;;10.07;8.00;;;;;;;;;;1481701;40;20860;-82
2021/07/22 05:21:14;;;;;;;13.52;8.23;;;;;;;;;;1481990;39;21009;-82
2021/07/22 05:22:17;;;;;;;11.90;8.35;;;;;;;;;;1490187;39;20531;-81
2021/07/22 05:23:19;;;;;;;10.18;8.32;;;;;;;;;;1489857;39;20484;-82
2021/07/22 05:24:20;;;;;;;9.10;7.78;;;;;;;;;;1485816;40;20782;-81
2021/07/22 05:25:22;;;;;;;10.02;8.25;;;;;;;;;;1481883;39;20416;-80
2021/07/22 05:26:24;;;;;;;11.68;8.52;;;;;;;;;;1489999;39;20618;-82
2021/07/22 05:27:25;;;;;;;9.88;7.95;;;;;;;;;;1494590;39;20669;-80
2021/07/22 05:28:27;;;;;;;9.82;7.72;;;;;;;;;;1494797;39;20975;-80
2021/07/22 05:29:28;;;;;;;10.25;8.32;;;;;;;;;;1490138;39;20640;-81
2021/07/22 05:30:30;;;;;;;11.48;8.40;;;;;;;;;;1486277;39;20414;-79
2021/07/22 05:31:32;;;;;;;13.88;7.80;;;;;;;;;;1485698;39;20572;-79
2021/07/22 05:32:33;;;;;;;11.07;8.55;;;;;;;;;;1485993;39;20420;-79
2021/07/22 05:33:36;;;;;;;11.10;7.82;;;;;;;;;;1490676;39;20853;-81
2021/07/22 05:34:38;;;;;;;10.15;8.10;;;;;;;;;;1494763;39;20461;-85
2021/07/22 05:35:39;;;;;;;8.38;7.25;;;;;;;;;;1490406;39;20723;-85
2021/07/22 05:36:41;;;;;;;9.93;7.55;;;;;;;;;;1482343;40;20447;-85
2021/07/22 05:37:43;;;;;;;9.07;7.47;;;;;;;;;;1486909;39;20498;-83
2021/07/22 05:38:44;;;;;;;9.50;7.40;;;;;;;;;;1496067;39;20420;-83
2021/07/22 05:39:46;;;;;;;15.50;7.82;;;;;;;;;;1491560;39;20396;-82
2021/07/22 05:40:48;;;;;;;9.55;7.18;;;;;;;;;;1487524;39;20446;-82
2021/07/22 05:41:49;;;;;;;10.77;7.82;;;;;;;;;;1481629;40;20409;-84
2021/07/22 05:42:51;;;;;;;11.00;7.60;;;;;;;;;;1482389;39;20420;-84
2021/07/22 05:43:53;;;;;;;9.45;7.47;;;;;;;;;;1491521;39;20438;-84
2021/07/22 05:44:54;;;;;;;8.80;6.95;;;;;;;;;;1494965;39;20412;-86
2021/07/22 05:45:57;;;;;;;10.60;7.53;;;;;;;;;;1490218;40;20438;-84
2021/07/22 05:46:59;;;;;;;10.25;7.53;;;;;;;;;;1490122;39;21208;-84
2021/07/22 05:48:01;;;;;;;9.82;6.85;;;;;;;;;;1494411;39;20412;-84
2021/07/22 05:49:04;;;;;;;11.65;7.75;;;;;;;;;;1494433;39;20401;-84
2021/07/22 05:50:06;;;;;;;11.10;7.90;;;;;;;;;;1489505;40;20816;-83
2021/07/22 05:51:07;;;;;;;8.55;6.88;;;;;;;;;;1488102;39;20406;-83
2021/07/22 05:52:09;;;;;;;9.35;7.38;;;;;;;;;;1491918;39;20530;-84
2021/07/22 05:53:10;;;;;;;10.38;6.50;;;;;;;;;;1492051;39;20389;-84
2021/07/22 05:54:12;;;;;;;8.35;6.72;;;;;;;;;;1491391;39;20421;-84
2021/07/22 05:55:14;;;;;;;9.63;6.40;;;;;;;;;;1487087;39;20533;-84
2021/07/22 05:56:18;;;;;;;8.15;6.93;;;;;;;;;;1487434;39;20541;-82
2021/07/22 05:57:20;;;;;;;12.00;7.20;;;;;;;;;;1487126;39;20411;-84
2021/07/22 05:58:22;;;;;;;8.05;7.07;;;;;;;;;;1486641;39;20509;-83
2021/07/22 05:59:24;;;;;;;8.38;7.35;;;;;;;;;;1490978;39;20499;-83
2021/07/22 06:00:26;;;;;;;9.38;7.07;;;;;;;;;;1490931;39;20413;-82
2021/07/22 06:01:28;;;;;;;8.32;7.03;;;;;;;;;;1482538;40;20562;-83
2021/07/22 06:02:29;;;;;;;10.10;7.47;;;;;;;;;;1478657;40;20410;-82